createdAt,value
2018-09-09T00:00:39.687Z,57.12
2018-09-09T00:03:09.391Z,57.01
2018-09-09T00:05:37.868Z,56.98
2018-09-09T00:08:06.483Z,56.98
2018-09-09T00:10:34.995Z,57.24
2018-09-09T00:13:04.173Z,57.52
2018-09-09T00:15:33.082Z,57.51
2018-09-09T00:18:01.614Z,57.67
2018-09-09T00:20:30.205Z,57.48
2018-09-09T00:22:58.747Z,57.02
2018-09-09T00:25:28.616Z,57.13
2018-09-09T00:27:57.613Z,57.77
2018-09-09T00:30:26.058Z,57.61
2018-09-09T00:32:55.007Z,57.42
2018-09-09T00:35:23.500Z,57.44
2018-09-09T00:37:52.114Z,57.63
2018-09-09T00:40:21.953Z,57.51
2018-09-09T00:42:50.400Z,57.65
2018-09-09T00:45:19.850Z,58.09
2018-09-09T00:47:49.548Z,58.24
2018-09-09T00:50:23.826Z,58.46
2018-09-09T00:52:58.255Z,58.39
2018-09-09T00:55:27.800Z,58.61
2018-09-09T00:57:57.626Z,58.69
2018-09-09T01:01:34.338Z,58.97
2018-09-09T01:04:02.829Z,59.03
2018-09-09T01:06:31.384Z,58.83
2018-09-09T01:09:00.010Z,59.15
2018-09-09T01:11:29.130Z,59.48
2018-09-09T01:13:58.162Z,59.70
2018-09-09T01:16:26.707Z,59.37
2018-09-09T01:18:55.277Z,59.27
2018-09-09T01:21:24.223Z,59.49
2018-09-09T01:23:53.297Z,59.17
2018-09-09T01:26:21.861Z,59.12
2018-09-09T01:28:51.697Z,59.10
2018-09-09T01:31:20.432Z,58.97
2018-09-09T01:33:49.629Z,59.45
2018-09-09T01:36:18.087Z,59.71
2018-09-09T01:38:46.808Z,59.72
2018-09-09T01:41:16.223Z,59.81
2018-09-09T01:43:44.919Z,59.80
2018-09-09T01:46:13.465Z,59.88
2018-09-09T01:48:42.047Z,60.08
2018-09-09T01:51:11.102Z,60.42
2018-09-09T01:53:40.253Z,60.49
2018-09-09T01:56:09.591Z,60.69
2018-09-09T01:58:39.399Z,60.82
2018-09-09T02:01:08.000Z,60.81
2018-09-09T02:03:36.621Z,60.81
2018-09-09T02:06:05.623Z,60.73
2018-09-09T02:08:34.068Z,60.51
2018-09-09T02:11:02.487Z,60.39
2018-09-09T02:13:32.511Z,60.92
2018-09-09T02:16:01.518Z,61.12
2018-09-09T02:18:29.955Z,61.23
2018-09-09T02:20:58.694Z,61.24
2018-09-09T02:23:27.641Z,61.43
2018-09-09T02:25:56.654Z,61.46
2018-09-09T02:28:25.863Z,61.20
2018-09-09T02:30:55.258Z,61.28
2018-09-09T02:33:24.821Z,61.03
2018-09-09T02:35:53.549Z,60.98
2018-09-09T02:38:22.559Z,61.56
2018-09-09T02:40:51.644Z,61.33
2018-09-09T02:43:20.085Z,61.44
2018-09-09T02:45:48.657Z,61.39
2018-09-09T02:48:17.195Z,61.75
2018-09-09T02:50:46.245Z,61.92
2018-09-09T02:53:15.418Z,61.97
2018-09-09T02:55:46.017Z,61.74
2018-09-09T02:58:16.253Z,61.79
2018-09-09T03:00:44.954Z,61.57
2018-09-09T03:03:13.379Z,61.49
2018-09-09T03:05:42.439Z,61.47
2018-09-09T03:08:10.869Z,61.49
2018-09-09T03:10:40.193Z,61.61
2018-09-09T03:13:08.804Z,61.67
2018-09-09T03:15:38.432Z,61.85
2018-09-09T03:18:06.852Z,62.10
2018-09-09T03:20:36.464Z,62.09
2018-09-09T03:23:04.945Z,62.32
2018-09-09T03:25:33.443Z,62.22
2018-09-09T03:28:02.692Z,62.46
2018-09-09T03:30:31.663Z,62.52
2018-09-09T03:33:00.233Z,62.48
2018-09-09T03:35:28.745Z,63.12
2018-09-09T03:37:58.400Z,63.16
2018-09-09T03:40:27.830Z,63.23
2018-09-09T03:43:01.432Z,63.78
2018-09-09T03:45:30.426Z,63.81
2018-09-09T03:47:59.108Z,63.96
2018-09-09T03:50:28.110Z,64.17
2018-09-09T03:52:57.166Z,64.21
2018-09-09T03:55:25.770Z,64.21
2018-09-09T03:57:54.436Z,64.54
2018-09-09T04:00:23.039Z,64.60
2018-09-09T04:02:51.456Z,65.02
2018-09-09T04:05:21.299Z,64.77
2018-09-09T04:07:51.336Z,64.78
2018-09-09T04:10:19.866Z,64.62
2018-09-09T04:12:50.046Z,64.68
2018-09-09T04:15:18.483Z,64.52
2018-09-09T04:17:47.763Z,64.51
2018-09-09T04:20:17.082Z,64.37
2018-09-09T04:22:45.608Z,64.24
2018-09-09T04:25:14.182Z,64.26
2018-09-09T04:27:42.670Z,64.17
2018-09-09T04:30:11.899Z,64.13
2018-09-09T04:32:40.485Z,64.53
2018-09-09T04:35:10.542Z,64.26
2018-09-09T04:37:39.047Z,64.45
2018-09-09T04:40:07.786Z,64.65
2018-09-09T04:42:36.212Z,64.90
2018-09-09T04:45:05.107Z,64.85
2018-09-09T04:47:33.647Z,64.65
2018-09-09T04:50:02.223Z,64.67
2018-09-09T04:52:30.784Z,64.85
2018-09-09T04:54:59.710Z,64.42
2018-09-09T04:57:28.401Z,64.45
2018-09-09T04:59:57.545Z,64.50
2018-09-09T05:02:26.782Z,64.55
2018-09-09T05:04:55.769Z,64.63
2018-09-09T05:07:25.501Z,64.57
2018-09-09T05:09:55.093Z,65.03
2018-09-09T05:12:23.699Z,64.73
2018-09-09T05:14:53.595Z,64.75
2018-09-09T05:17:22.354Z,64.48
2018-09-09T05:19:52.486Z,64.61
2018-09-09T05:22:20.885Z,64.53
2018-09-09T05:24:49.335Z,64.59
2018-09-09T05:27:17.724Z,64.38
2018-09-09T05:29:46.284Z,64.34
2018-09-09T05:32:14.747Z,64.14
2018-09-09T05:34:44.506Z,63.96
2018-09-09T05:37:13.028Z,63.81
2018-09-09T05:39:41.490Z,63.76
2018-09-09T05:42:09.989Z,63.35
2018-09-09T05:44:39.631Z,63.48
2018-09-09T05:47:09.257Z,63.83
2018-09-09T05:49:37.988Z,63.58
2018-09-09T05:52:07.239Z,63.66
2018-09-09T05:54:36.442Z,63.62
2018-09-09T05:57:05.351Z,63.78
2018-09-09T05:59:33.856Z,63.00
2018-09-09T06:02:03.126Z,60.35
2018-09-09T06:04:31.760Z,58.01
2018-09-09T06:07:01.119Z,57.02
2018-09-09T06:09:29.682Z,57.72
2018-09-09T06:11:58.440Z,58.73
2018-09-09T06:14:26.892Z,59.05
2018-09-09T06:16:55.652Z,59.83
2018-09-09T06:19:25.257Z,59.97
2018-09-09T06:21:54.945Z,60.16
2018-09-09T06:24:23.374Z,60.68
2018-09-09T06:26:52.526Z,60.70
2018-09-09T06:29:21.584Z,60.78
2018-09-09T06:31:50.228Z,60.70
2018-09-09T06:34:19.944Z,60.60
2018-09-09T06:36:49.142Z,60.47
2018-09-09T06:39:17.675Z,60.66
2018-09-09T06:41:47.111Z,60.84
2018-09-09T06:44:15.801Z,60.66
2018-09-09T06:46:44.303Z,60.50
2018-09-09T06:49:12.937Z,59.77
2018-09-09T06:51:42.568Z,58.14
2018-09-09T06:54:11.073Z,57.09
2018-09-09T06:56:40.276Z,54.80
2018-09-09T06:59:09.437Z,53.21
2018-09-09T07:01:38.118Z,52.37
2018-09-09T07:04:06.622Z,51.77
2018-09-09T07:06:35.088Z,51.81
2018-09-09T07:09:03.768Z,51.12
2018-09-09T07:11:32.492Z,51.72
2018-09-09T07:14:01.534Z,51.48
2018-09-09T07:16:30.084Z,50.85
2018-09-09T07:18:59.270Z,50.10
2018-09-09T07:21:27.665Z,49.45
2018-09-09T07:23:56.345Z,47.96
2018-09-09T07:26:25.457Z,45.96
2018-09-09T07:28:54.695Z,43.71
2018-09-09T07:31:23.460Z,40.82
2018-09-09T07:33:52.026Z,39.74
2018-09-09T07:36:20.953Z,39.11
2018-09-09T07:38:50.189Z,37.06
2018-09-09T07:41:18.750Z,37.47
2018-09-09T07:43:48.629Z,36.74
2018-09-09T07:46:17.549Z,38.96
2018-09-09T07:48:47.455Z,39.58
2018-09-09T07:51:16.025Z,37.81
2018-09-09T07:53:44.496Z,36.18
2018-09-09T07:56:12.964Z,34.57
2018-09-09T07:58:42.212Z,34.49
2018-09-09T08:01:10.745Z,33.50
2018-09-09T08:03:39.942Z,33.47
2018-09-09T08:06:09.423Z,32.90
2018-09-09T08:08:37.929Z,33.08
2018-09-09T08:11:07.228Z,32.84
2018-09-09T08:13:35.866Z,32.67
2018-09-09T08:16:05.590Z,32.40
2018-09-09T08:18:35.032Z,30.55
2018-09-09T08:21:04.432Z,30.83
2018-09-09T08:23:32.983Z,31.13
2018-09-09T08:26:02.537Z,32.05
2018-09-09T08:28:32.361Z,32.36
2018-09-09T08:31:00.882Z,33.67
2018-09-09T08:33:30.163Z,34.41
2018-09-09T08:35:58.669Z,33.25
2018-09-09T08:38:28.357Z,32.18
2018-09-09T08:40:58.790Z,32.28
2018-09-09T08:43:28.401Z,31.58
2018-09-09T08:45:58.457Z,30.14
2018-09-09T08:48:27.424Z,30.43
2018-09-09T08:50:56.136Z,30.55
2018-09-09T08:53:25.871Z,29.80
2018-09-09T08:55:54.794Z,29.70
2018-09-09T08:58:23.665Z,28.57
2018-09-09T09:00:52.338Z,27.32
2018-09-09T09:03:20.866Z,27.12
2018-09-09T09:05:49.426Z,26.98
2018-09-09T09:08:17.975Z,26.17
2018-09-09T09:10:46.528Z,26.96
2018-09-09T09:13:15.442Z,26.19
2018-09-09T09:15:44.247Z,24.70
2018-09-09T09:18:15.758Z,24.46
2018-09-09T09:20:44.406Z,24.40
2018-09-09T09:23:12.954Z,24.19
2018-09-09T09:25:56.167Z,24.69
2018-09-09T09:28:25.101Z,24.78
2018-09-09T09:30:54.136Z,24.91
2018-09-09T09:33:23.187Z,24.93
2018-09-09T09:35:53.763Z,24.26
2018-09-09T09:38:23.278Z,25.23
2018-09-09T09:40:52.472Z,25.48
2018-09-09T09:43:21.251Z,25.77
2018-09-09T09:45:49.964Z,26.19
2018-09-09T09:48:19.422Z,26.71
2018-09-09T09:50:48.986Z,24.97
2018-09-09T09:53:18.372Z,23.78
2018-09-09T09:55:48.114Z,25.76
2018-09-09T09:58:17.665Z,25.33
2018-09-09T10:00:52.046Z,23.74
2018-09-09T10:03:21.270Z,23.44
2018-09-09T10:05:50.391Z,22.67
2018-09-09T10:08:19.027Z,23.01
2018-09-09T10:10:47.605Z,22.28
2018-09-09T10:13:16.182Z,21.97
2018-09-09T10:15:45.468Z,21.87
2018-09-09T10:18:14.213Z,21.73
2018-09-09T10:20:43.460Z,21.14
2018-09-09T10:23:12.070Z,20.08
2018-09-09T10:25:42.013Z,20.04
2018-09-09T10:28:11.247Z,21.28
2018-09-09T10:30:41.796Z,20.36
2018-09-09T10:33:10.377Z,21.12
2018-09-09T10:35:39.543Z,21.58
2018-09-09T10:38:08.619Z,21.53
2018-09-09T10:40:37.673Z,19.07
2018-09-09T10:43:06.347Z,17.28
2018-09-09T10:45:35.162Z,17.64
2018-09-09T10:48:04.645Z,17.38
2018-09-09T10:50:34.101Z,17.29
2018-09-09T10:53:02.929Z,17.34
2018-09-09T10:55:32.315Z,17.95
2018-09-09T10:58:01.036Z,17.81
2018-09-09T11:00:29.560Z,18.42
2018-09-09T11:02:58.819Z,17.83
2018-09-09T11:05:27.340Z,17.34
2018-09-09T11:07:56.191Z,17.68
2018-09-09T11:10:24.776Z,18.22
2018-09-09T11:12:53.368Z,17.85
2018-09-09T11:15:21.978Z,18.93
2018-09-09T11:17:50.790Z,19.27
2018-09-09T11:20:20.004Z,20.08
2018-09-09T11:22:49.850Z,19.41
2018-09-09T11:25:19.112Z,18.98
2018-09-09T11:27:52.269Z,18.54
2018-09-09T11:30:21.577Z,18.94
2018-09-09T11:32:50.822Z,19.40
2018-09-09T11:35:19.967Z,19.32
2018-09-09T11:37:48.598Z,19.21
2018-09-09T11:40:17.363Z,20.32
2018-09-09T11:42:46.008Z,20.90
2018-09-09T11:45:15.154Z,21.24
2018-09-09T11:47:44.264Z,18.77
2018-09-09T11:50:12.703Z,19.70
2018-09-09T11:52:42.094Z,19.13
2018-09-09T11:55:10.767Z,18.53
2018-09-09T11:57:39.412Z,18.86
2018-09-09T12:00:08.554Z,19.70
2018-09-09T12:02:37.675Z,20.39
2018-09-09T12:05:06.349Z,20.75
2018-09-09T12:07:35.742Z,20.83
2018-09-09T12:10:04.332Z,21.20
2018-09-09T12:12:34.312Z,21.17
2018-09-09T12:15:03.234Z,21.64
2018-09-09T12:17:32.594Z,22.24
2018-09-09T12:20:05.553Z,20.45
2018-09-09T12:22:34.805Z,19.54
2018-09-09T12:25:03.368Z,18.45
2018-09-09T12:27:32.908Z,17.67
2018-09-09T12:30:01.429Z,17.69
2018-09-09T12:32:30.018Z,16.33
2018-09-09T12:34:59.484Z,15.60
2018-09-09T12:37:28.213Z,13.60
2018-09-09T12:39:58.010Z,14.27
2018-09-09T12:42:26.913Z,14.09
2018-09-09T12:45:00.698Z,13.78
2018-09-09T12:47:34.917Z,15.76
2018-09-09T12:50:04.923Z,15.81
2018-09-09T12:52:34.109Z,14.01
2018-09-09T12:55:03.720Z,14.85
2018-09-09T12:57:32.236Z,15.29
2018-09-09T13:00:02.155Z,15.01
2018-09-09T13:02:31.050Z,15.36
2018-09-09T13:04:59.848Z,15.03
2018-09-09T13:07:28.563Z,14.54
2018-09-09T13:09:57.233Z,14.69
2018-09-09T13:12:30.542Z,14.55
2018-09-09T13:14:59.313Z,14.27
2018-09-09T13:17:28.462Z,14.49
2018-09-09T13:19:57.292Z,14.56
2018-09-09T13:22:25.904Z,15.43
2018-09-09T13:24:54.547Z,15.64
2018-09-09T13:27:23.810Z,16.37
2018-09-09T13:29:52.533Z,15.91
2018-09-09T13:32:21.113Z,16.65
2018-09-09T13:34:50.279Z,18.01
2018-09-09T13:37:19.896Z,18.62
2018-09-09T13:39:48.667Z,20.22
2018-09-09T13:42:17.205Z,20.18
2018-09-09T13:44:46.973Z,19.66
2018-09-09T13:47:15.533Z,19.98
2018-09-09T13:49:44.026Z,20.79
2018-09-09T13:52:12.982Z,20.31
2018-09-09T13:54:41.765Z,21.36
2018-09-09T13:57:10.348Z,21.31
2018-09-09T13:59:39.160Z,20.92
2018-09-09T14:02:07.959Z,20.47
2018-09-09T14:04:37.391Z,20.13
2018-09-09T14:07:06.048Z,19.70
2018-09-09T14:09:35.522Z,20.79
2018-09-09T14:12:04.719Z,20.62
2018-09-09T14:14:33.462Z,19.95
2018-09-09T14:17:02.183Z,20.09
2018-09-09T14:19:31.448Z,19.53
2018-09-09T14:22:00.519Z,19.67
2018-09-09T14:24:29.187Z,20.01
2018-09-09T14:26:58.384Z,19.93
2018-09-09T14:29:26.977Z,19.52
2018-09-09T14:31:57.474Z,18.43
2018-09-09T14:34:26.283Z,18.13
2018-09-09T14:37:01.070Z,18.73
2018-09-09T14:39:30.263Z,17.82
2018-09-09T14:41:58.887Z,18.58
2018-09-09T14:44:29.245Z,17.93
2018-09-09T14:46:58.695Z,18.24
2018-09-09T14:49:27.324Z,18.75
2018-09-09T14:51:56.679Z,18.90
2018-09-09T14:54:25.466Z,18.36
2018-09-09T14:56:54.116Z,19.82
2018-09-09T14:59:22.737Z,19.14
2018-09-09T15:01:52.120Z,19.71
2018-09-09T15:04:21.488Z,19.83
2018-09-09T15:06:52.213Z,21.28
2018-09-09T15:09:21.648Z,20.77
2018-09-09T15:11:50.307Z,21.18
2018-09-09T15:14:18.806Z,20.91
2018-09-09T15:16:48.258Z,21.45
2018-09-09T15:19:16.909Z,21.66
2018-09-09T15:21:46.081Z,22.96
2018-09-09T15:24:15.075Z,22.83
2018-09-09T15:26:44.461Z,23.78
2018-09-09T15:29:13.176Z,24.00
2018-09-09T15:31:41.674Z,23.79
2018-09-09T15:34:10.959Z,24.20
2018-09-09T15:36:39.637Z,24.00
2018-09-09T15:39:09.299Z,25.42
2018-09-09T15:41:37.998Z,25.80
2018-09-09T15:44:06.545Z,25.87
2018-09-09T15:46:35.981Z,25.27
2018-09-09T15:49:04.592Z,26.44
2018-09-09T15:51:33.748Z,25.52
2018-09-09T15:54:02.758Z,25.97
2018-09-09T15:56:33.495Z,26.74
2018-09-09T15:59:02.841Z,26.91
2018-09-09T16:01:32.689Z,27.26
2018-09-09T16:04:01.184Z,27.16
2018-09-09T16:06:30.202Z,27.46
2018-09-09T16:08:58.756Z,27.61
2018-09-09T16:11:28.611Z,27.71
2018-09-09T16:13:58.018Z,27.75
2018-09-09T16:16:28.129Z,28.00
2018-09-09T16:18:56.846Z,28.19
2018-09-09T16:21:25.278Z,28.75
2018-09-09T16:23:54.185Z,28.82
2018-09-09T16:26:22.802Z,29.60
2018-09-09T16:28:52.388Z,29.35
2018-09-09T16:31:21.528Z,28.96
2018-09-09T16:33:50.436Z,28.87
2018-09-09T16:36:19.884Z,29.13
2018-09-09T16:38:48.620Z,29.52
2018-09-09T16:41:17.997Z,29.34
2018-09-09T16:43:46.664Z,29.54
2018-09-09T16:46:16.515Z,30.14
2018-09-09T16:48:46.737Z,29.63
2018-09-09T16:51:15.238Z,29.92
2018-09-09T16:53:43.998Z,30.04
2018-09-09T16:56:19.209Z,30.62
2018-09-09T16:58:47.899Z,30.20
2018-09-09T17:01:17.063Z,30.08
2018-09-09T17:03:45.875Z,30.53
2018-09-09T17:06:14.613Z,31.62
2018-09-09T17:08:43.176Z,31.61
2018-09-09T17:11:11.735Z,32.03
2018-09-09T17:13:40.299Z,31.77
2018-09-09T17:16:09.510Z,32.94
2018-09-09T17:18:38.252Z,32.58
2018-09-09T17:21:06.846Z,32.59
2018-09-09T17:23:36.493Z,32.75
2018-09-09T17:26:05.720Z,32.72
2018-09-09T17:28:34.469Z,33.25
2018-09-09T17:31:03.049Z,33.41
2018-09-09T17:33:31.672Z,33.66
2018-09-09T17:36:00.463Z,33.49
2018-09-09T17:38:29.050Z,33.94
2018-09-09T17:40:58.680Z,34.38
2018-09-09T17:43:27.161Z,34.17
2018-09-09T17:45:55.761Z,35.35
2018-09-09T17:48:24.305Z,35.44
2018-09-09T17:50:52.896Z,36.80
2018-09-09T17:53:21.947Z,37.30
2018-09-09T17:55:50.923Z,37.33
2018-09-09T17:58:19.492Z,37.63
2018-09-09T18:00:48.699Z,37.36
2018-09-09T18:03:17.361Z,37.14
2018-09-09T18:05:46.044Z,37.21
2018-09-09T18:08:14.722Z,36.71
2018-09-09T18:10:43.301Z,37.45
2018-09-09T18:13:11.896Z,37.59
2018-09-09T18:15:40.462Z,37.57
2018-09-09T18:18:09.058Z,37.40
2018-09-09T18:20:37.666Z,38.03
2018-09-09T18:23:06.152Z,37.83
2018-09-09T18:25:34.764Z,37.92
2018-09-09T18:28:04.147Z,38.58
2018-09-09T18:30:32.719Z,38.46
2018-09-09T18:33:01.511Z,38.84
2018-09-09T18:35:30.266Z,39.17
2018-09-09T18:37:58.825Z,39.62
2018-09-09T18:40:28.200Z,40.41
2018-09-09T18:42:56.823Z,40.35
2018-09-09T18:45:26.025Z,40.38
2018-09-09T18:47:54.694Z,40.52
2018-09-09T18:50:23.589Z,41.53
2018-09-09T18:52:52.334Z,41.68
2018-09-09T18:55:22.234Z,42.26
2018-09-09T18:57:51.344Z,42.42
2018-09-09T19:00:19.887Z,42.75
2018-09-09T19:02:49.154Z,42.56
2018-09-09T19:05:17.683Z,43.18
2018-09-09T19:07:46.984Z,42.78
2018-09-09T19:10:16.529Z,43.30
2018-09-09T19:12:45.373Z,43.62
2018-09-09T19:15:14.037Z,43.63
2018-09-09T19:17:44.192Z,44.29
2018-09-09T19:20:14.477Z,44.83
2018-09-09T19:22:43.059Z,44.89
2018-09-09T19:25:11.709Z,44.69
2018-09-09T19:27:40.551Z,44.82
2018-09-09T19:30:09.097Z,45.39
2018-09-09T19:32:37.661Z,45.45
2018-09-09T19:35:06.363Z,45.27
2018-09-09T19:37:35.095Z,45.64
2018-09-09T19:40:03.816Z,45.97
2018-09-09T19:42:37.816Z,45.97
2018-09-09T19:45:07.885Z,46.26
2018-09-09T19:47:36.903Z,46.95
2018-09-09T19:50:06.244Z,46.69
2018-09-09T19:52:35.903Z,46.99
2018-09-09T19:55:04.658Z,47.40
2018-09-09T19:57:33.407Z,47.72
2018-09-09T20:00:02.648Z,47.83
2018-09-09T20:02:31.202Z,47.73
2018-09-09T20:05:00.367Z,47.96
2018-09-09T20:07:29.475Z,48.20
2018-09-09T20:09:58.676Z,47.79
2018-09-09T20:12:27.336Z,48.35
2018-09-09T20:14:55.958Z,48.07
2018-09-09T20:17:24.428Z,48.14
2018-09-09T20:19:52.934Z,48.51
2018-09-09T20:22:22.045Z,48.78
2018-09-09T20:24:51.030Z,49.01
2018-09-09T20:27:19.540Z,48.79
2018-09-09T20:29:48.233Z,49.02
2018-09-09T20:32:16.807Z,48.55
2018-09-09T20:34:45.341Z,48.90
2018-09-09T20:37:14.034Z,49.47
2018-09-09T20:39:43.688Z,49.51
2018-09-09T20:42:12.190Z,49.40
2018-09-09T20:44:40.713Z,49.59
2018-09-09T20:47:09.277Z,50.00
2018-09-09T20:49:38.593Z,49.86
2018-09-09T20:52:07.219Z,50.65
2018-09-09T20:54:35.789Z,50.66
2018-09-09T20:57:04.512Z,51.12
2018-09-09T20:59:32.937Z,50.74
2018-09-09T21:02:03.815Z,51.18
2018-09-09T21:04:32.912Z,50.86
